sensor_id;sensor_type;location;lat;lon;timestamp;P1;durP1;ratioP1;P2;durP2;ratioP2
948;SDS011;461;51.436;7.312;2023-12-20T01:33:07;14.03;;;6.87;;
948;SDS011;461;51.436;7.312;2023-12-20T01:35:44;11.57;;;6.43;;
948;SDS011;461;51.436;7.312;2023-12-20T01:41:42;10.43;;;5.40;;
948;SDS011;461;51.436;7.312;2023-12-20T01:44:36;13.40;;;5.93;;
948;SDS011;461;51.436;7.312;2023-12-20T01:47:41;9.30;;;5.17;;
948;SDS011;461;51.436;7.312;2023-12-20T01:50:14;11.23;;;6.77;;
948;SDS011;461;51.436;7.312;2023-12-20T01:59:15;9.70;;;4.80;;
948;SDS011;461;51.436;7.312;2023-12-20T02:01:53;19.77;;;5.73;;
948;SDS011;461;51.436;7.312;2023-12-20T02:04:38;6.93;;;4.90;;
948;SDS011;461;51.436;7.312;2023-12-20T02:10:39;9.40;;;4.50;;
948;SDS011;461;51.436;7.312;2023-12-20T02:13:27;11.40;;;4.43;;
948;SDS011;461;51.436;7.312;2023-12-20T02:16:33;8.37;;;4.57;;
948;SDS011;461;51.436;7.312;2023-12-20T02:19:12;12.13;;;5.00;;
948;SDS011;461;51.436;7.312;2023-12-20T02:22:19;11.73;;;4.87;;
948;SDS011;461;51.436;7.312;2023-12-20T02:27:59;7.20;;;3.90;;
948;SDS011;461;51.436;7.312;2023-12-20T02:30:29;10.10;;;5.53;;
948;SDS011;461;51.436;7.312;2023-12-20T02:33:14;14.77;;;4.20;;
948;SDS011;461;51.436;7.312;2023-12-20T02:35:50;11.07;;;4.87;;
948;SDS011;461;51.436;7.312;2023-12-20T02:38:36;11.17;;;5.80;;
948;SDS011;461;51.436;7.312;2023-12-20T02:41:31;14.33;;;6.50;;
948;SDS011;461;51.436;7.312;2023-12-20T02:44:03;16.27;;;6.80;;
948;SDS011;461;51.436;7.312;2023-12-20T02:46:30;13.23;;;6.17;;
948;SDS011;461;51.436;7.312;2023-12-20T02:49:03;16.23;;;6.90;;
948;SDS011;461;51.436;7.312;2023-12-20T02:51:32;9.10;;;6.50;;
948;SDS011;461;51.436;7.312;2023-12-20T02:54:06;9.20;;;6.03;;
948;SDS011;461;51.436;7.312;2023-12-20T02:56:40;8.67;;;5.40;;
948;SDS011;461;51.436;7.312;2023-12-20T02:59:07;10.90;;;6.00;;
948;SDS011;461;51.436;7.312;2023-12-20T03:01:41;12.93;;;5.67;;
948;SDS011;461;51.436;7.312;2023-12-20T03:04:14;10.10;;;5.17;;
948;SDS011;461;51.436;7.312;2023-12-20T03:06:50;12.13;;;5.73;;
948;SDS011;461;51.436;7.312;2023-12-20T03:09:25;12.47;;;5.87;;
948;SDS011;461;51.436;7.312;2023-12-20T03:12:05;10.83;;;5.63;;
948;SDS011;461;51.436;7.312;2023-12-20T03:14:47;11.00;;;5.47;;
948;SDS011;461;51.436;7.312;2023-12-20T03:17:27;16.77;;;5.77;;
948;SDS011;461;51.436;7.312;2023-12-20T03:20:22;16.90;;;7.00;;
948;SDS011;461;51.436;7.312;2023-12-20T03:25:58;16.40;;;5.50;;
948;SDS011;461;51.436;7.312;2023-12-20T03:28:41;10.87;;;5.17;;
948;SDS011;461;51.436;7.312;2023-12-20T03:31:23;15.27;;;5.77;;
948;SDS011;461;51.436;7.312;2023-12-20T03:34:29;14.73;;;5.73;;
948;SDS011;461;51.436;7.312;2023-12-20T03:37:26;19.33;;;5.20;;
948;SDS011;461;51.436;7.312;2023-12-20T03:40:01;12.93;;;5.77;;
948;SDS011;461;51.436;7.312;2023-12-20T03:42:38;7.77;;;4.40;;
948;SDS011;461;51.436;7.312;2023-12-20T03:45:14;10.33;;;4.27;;
948;SDS011;461;51.436;7.312;2023-12-20T03:47:52;8.83;;;5.50;;
948;SDS011;461;51.436;7.312;2023-12-20T03:50:25;7.50;;;4.03;;
948;SDS011;461;51.436;7.312;2023-12-20T03:52:54;8.50;;;5.17;;
948;SDS011;461;51.436;7.312;2023-12-20T03:55:30;10.53;;;5.60;;
948;SDS011;461;51.436;7.312;2023-12-20T03:58:09;11.00;;;5.40;;
948;SDS011;461;51.436;7.312;2023-12-20T04:00:47;8.23;;;5.60;;
948;SDS011;461;51.436;7.312;2023-12-20T04:06:50;15.10;;;5.83;;
948;SDS011;461;51.436;7.312;2023-12-20T04:09:18;13.40;;;6.60;;
948;SDS011;461;51.436;7.312;2023-12-20T04:11:52;17.23;;;5.20;;
948;SDS011;461;51.436;7.312;2023-12-20T04:14:24;16.00;;;5.90;;
948;SDS011;461;51.436;7.312;2023-12-20T04:16:57;11.83;;;7.43;;
948;SDS011;461;51.436;7.312;2023-12-20T04:19:38;16.93;;;8.07;;
948;SDS011;461;51.436;7.312;2023-12-20T04:22:10;13.77;;;6.70;;
948;SDS011;461;51.436;7.312;2023-12-20T04:24:56;9.70;;;5.80;;
948;SDS011;461;51.436;7.312;2023-12-20T04:27:32;12.60;;;6.57;;
948;SDS011;461;51.436;7.312;2023-12-20T04:30:13;12.03;;;6.67;;
948;SDS011;461;51.436;7.312;2023-12-20T04:32:45;19.70;;;6.37;;
948;SDS011;461;51.436;7.312;2023-12-20T04:35:12;20.23;;;7.70;;
948;SDS011;461;51.436;7.312;2023-12-20T04:37:42;17.20;;;9.40;;
948;SDS011;461;51.436;7.312;2023-12-20T04:40:14;16.50;;;6.77;;
948;SDS011;461;51.436;7.312;2023-12-20T04:42:40;23.23;;;7.40;;
948;SDS011;461;51.436;7.312;2023-12-20T04:45:09;10.20;;;6.70;;
948;SDS011;461;51.436;7.312;2023-12-20T04:47:38;15.17;;;7.00;;
948;SDS011;461;51.436;7.312;2023-12-20T04:50:06;11.73;;;8.20;;
948;SDS011;461;51.436;7.312;2023-12-20T04:52:38;15.10;;;6.73;;
948;SDS011;461;51.436;7.312;2023-12-20T04:55:07;24.00;;;6.60;;
948;SDS011;461;51.436;7.312;2023-12-20T04:57:36;18.13;;;6.87;;
948;SDS011;461;51.436;7.312;2023-12-20T05:00:02;12.67;;;6.30;;
948;SDS011;461;51.436;7.312;2023-12-20T05:02:32;12.77;;;5.67;;
948;SDS011;461;51.436;7.312;2023-12-20T05:05:01;11.40;;;7.60;;
948;SDS011;461;51.436;7.312;2023-12-20T05:07:33;22.30;;;6.97;;
948;SDS011;461;51.436;7.312;2023-12-20T05:10:11;17.00;;;6.63;;
948;SDS011;461;51.436;7.312;2023-12-20T05:13:03;12.93;;;6.60;;
948;SDS011;461;51.436;7.312;2023-12-20T05:15:36;15.43;;;6.30;;
948;SDS011;461;51.436;7.312;2023-12-20T05:18:05;21.20;;;7.73;;
948;SDS011;461;51.436;7.312;2023-12-20T05:20:41;11.87;;;7.83;;
948;SDS011;461;51.436;7.312;2023-12-20T05:23:16;15.57;;;7.07;;
948;SDS011;461;51.436;7.312;2023-12-20T05:25:43;16.87;;;7.30;;
948;SDS011;461;51.436;7.312;2023-12-20T05:28:15;13.80;;;6.30;;
948;SDS011;461;51.436;7.312;2023-12-20T05:30:55;30.97;;;7.90;;
948;SDS011;461;51.436;7.312;2023-12-20T05:33:31;17.70;;;7.27;;
948;SDS011;461;51.436;7.312;2023-12-20T05:36:06;9.57;;;6.27;;
948;SDS011;461;51.436;7.312;2023-12-20T05:38:39;14.23;;;7.13;;
948;SDS011;461;51.436;7.312;2023-12-20T05:41:05;15.80;;;6.73;;
948;SDS011;461;51.436;7.312;2023-12-20T05:43:34;9.37;;;5.80;;
948;SDS011;461;51.436;7.312;2023-12-20T05:46:04;13.50;;;6.27;;
948;SDS011;461;51.436;7.312;2023-12-20T05:48:35;16.80;;;6.77;;
948;SDS011;461;51.436;7.312;2023-12-20T05:51:01;14.83;;;6.40;;
948;SDS011;461;51.436;7.312;2023-12-20T05:53:31;14.50;;;6.40;;
948;SDS011;461;51.436;7.312;2023-12-20T05:56:00;11.43;;;6.53;;
948;SDS011;461;51.436;7.312;2023-12-20T05:58:26;15.20;;;8.37;;
948;SDS011;461;51.436;7.312;2023-12-20T06:00:54;12.23;;;7.10;;
948;SDS011;461;51.436;7.312;2023-12-20T06:03:27;10.27;;;6.57;;
948;SDS011;461;51.436;7.312;2023-12-20T06:05:59;15.03;;;7.13;;
948;SDS011;461;51.436;7.312;2023-12-20T06:08:35;12.33;;;6.90;;
948;SDS011;461;51.436;7.312;2023-12-20T06:11:05;13.57;;;7.37;;
948;SDS011;461;51.436;7.312;2023-12-20T06:13:37;11.20;;;6.67;;
948;SDS011;461;51.436;7.312;2023-12-20T06:16:10;13.93;;;7.17;;
948;SDS011;461;51.436;7.312;2023-12-20T06:18:36;11.90;;;7.20;;
948;SDS011;461;51.436;7.312;2023-12-20T06:21:02;14.53;;;7.13;;
948;SDS011;461;51.436;7.312;2023-12-20T06:23:28;17.07;;;7.40;;
948;SDS011;461;51.436;7.312;2023-12-20T06:25:58;23.20;;;8.10;;
948;SDS011;461;51.436;7.312;2023-12-20T06:28:25;17.13;;;7.03;;
948;SDS011;461;51.436;7.312;2023-12-20T06:30:54;29.40;;;7.00;;
948;SDS011;461;51.436;7.312;2023-12-20T06:33:22;17.87;;;6.70;;
948;SDS011;461;51.436;7.312;2023-12-20T06:35:48;14.93;;;6.67;;
948;SDS011;461;51.436;7.312;2023-12-20T06:38:14;16.90;;;8.10;;
948;SDS011;461;51.436;7.312;2023-12-20T06:40:41;22.73;;;6.83;;
948;SDS011;461;51.436;7.312;2023-12-20T06:43:07;21.17;;;6.67;;
948;SDS011;461;51.436;7.312;2023-12-20T06:45:33;15.23;;;6.60;;
948;SDS011;461;51.436;7.312;2023-12-20T06:48:00;16.33;;;6.30;;
948;SDS011;461;51.436;7.312;2023-12-20T06:50:26;16.60;;;5.17;;
948;SDS011;461;51.436;7.312;2023-12-20T06:52:52;9.63;;;5.83;;
948;SDS011;461;51.436;7.312;2023-12-20T06:55:18;11.23;;;5.47;;
948;SDS011;461;51.436;7.312;2023-12-20T06:57:44;13.10;;;6.20;;
948;SDS011;461;51.436;7.312;2023-12-20T07:00:11;12.70;;;6.67;;
948;SDS011;461;51.436;7.312;2023-12-20T07:02:37;21.27;;;5.87;;
948;SDS011;461;51.436;7.312;2023-12-20T07:05:04;19.47;;;5.80;;
948;SDS011;461;51.436;7.312;2023-12-20T07:07:30;14.93;;;6.47;;
948;SDS011;461;51.436;7.312;2023-12-20T07:09:56;14.40;;;5.90;;
948;SDS011;461;51.436;7.312;2023-12-20T07:12:22;21.53;;;7.20;;
948;SDS011;461;51.436;7.312;2023-12-20T07:14:49;13.07;;;5.57;;
948;SDS011;461;51.436;7.312;2023-12-20T07:17:15;14.20;;;5.47;;
948;SDS011;461;51.436;7.312;2023-12-20T07:19:41;12.60;;;5.60;;
948;SDS011;461;51.436;7.312;2023-12-20T07:22:07;19.43;;;6.33;;
948;SDS011;461;51.436;7.312;2023-12-20T07:24:34;10.53;;;4.93;;
948;SDS011;461;51.436;7.312;2023-12-20T07:27:00;17.20;;;5.80;;
948;SDS011;461;51.436;7.312;2023-12-20T11:30:42;8.70;;;4.57;;
948;SDS011;461;51.436;7.312;2023-12-20T11:33:13;11.03;;;3.70;;
948;SDS011;461;51.436;7.312;2023-12-20T11:35:40;13.17;;;5.20;;
948;SDS011;461;51.436;7.312;2023-12-20T11:38:09;8.60;;;4.23;;
948;SDS011;461;51.436;7.312;2023-12-20T11:46:08;13.07;;;5.43;;
948;SDS011;461;51.436;7.312;2023-12-20T19:39:59;13.43;;;7.40;;
948;SDS011;461;51.436;7.312;2023-12-20T19:42:27;17.40;;;6.57;;
948;SDS011;461;51.436;7.312;2023-12-20T19:44:55;10.23;;;5.53;;
948;SDS011;461;51.436;7.312;2023-12-20T19:47:21;9.90;;;5.20;;
948;SDS011;461;51.436;7.312;2023-12-20T19:49:48;15.10;;;5.13;;
948;SDS011;461;51.436;7.312;2023-12-20T19:52:14;11.57;;;6.13;;
948;SDS011;461;51.436;7.312;2023-12-20T19:54:39;9.90;;;6.37;;
948;SDS011;461;51.436;7.312;2023-12-20T19:57:05;15.07;;;7.27;;
948;SDS011;461;51.436;7.312;2023-12-20T19:59:31;8.03;;;5.80;;
948;SDS011;461;51.436;7.312;2023-12-20T20:01:57;9.33;;;5.10;;
948;SDS011;461;51.436;7.312;2023-12-20T20:04:25;9.70;;;5.37;;
948;SDS011;461;51.436;7.312;2023-12-20T20:06:50;13.43;;;5.30;;
948;SDS011;461;51.436;7.312;2023-12-20T20:09:17;12.37;;;6.50;;
948;SDS011;461;51.436;7.312;2023-12-20T20:11:43;14.17;;;6.40;;
948;SDS011;461;51.436;7.312;2023-12-20T20:14:09;10.73;;;5.70;;
948;SDS011;461;51.436;7.312;2023-12-20T20:16:35;11.40;;;5.70;;
948;SDS011;461;51.436;7.312;2023-12-20T20:19:00;8.93;;;6.57;;
948;SDS011;461;51.436;7.312;2023-12-20T20:21:26;15.53;;;6.30;;
948;SDS011;461;51.436;7.312;2023-12-20T20:23:52;11.80;;;5.80;;
948;SDS011;461;51.436;7.312;2023-12-20T20:26:18;9.27;;;5.80;;
948;SDS011;461;51.436;7.312;2023-12-20T20:28:43;15.63;;;6.43;;
948;SDS011;461;51.436;7.312;2023-12-20T20:31:11;11.17;;;6.07;;
948;SDS011;461;51.436;7.312;2023-12-20T20:33:37;9.47;;;5.50;;
948;SDS011;461;51.436;7.312;2023-12-20T20:36:03;7.03;;;5.23;;
948;SDS011;461;51.436;7.312;2023-12-20T20:38:32;10.70;;;6.37;;
948;SDS011;461;51.436;7.312;2023-12-20T20:40:58;10.00;;;5.10;;
948;SDS011;461;51.436;7.312;2023-12-20T20:43:24;10.33;;;5.73;;
948;SDS011;461;51.436;7.312;2023-12-20T20:45:50;7.67;;;5.97;;
948;SDS011;461;51.436;7.312;2023-12-20T20:48:16;6.17;;;5.20;;
948;SDS011;461;51.436;7.312;2023-12-20T20:50:42;15.13;;;6.30;;
948;SDS011;461;51.436;7.312;2023-12-20T20:53:08;8.30;;;5.33;;
948;SDS011;461;51.436;7.312;2023-12-20T20:55:34;8.17;;;5.27;;
948;SDS011;461;51.436;7.312;2023-12-20T20:58:00;5.60;;;4.80;;
948;SDS011;461;51.436;7.312;2023-12-20T21:00:26;6.20;;;4.60;;
948;SDS011;461;51.436;7.312;2023-12-20T21:02:53;6.70;;;5.40;;
948;SDS011;461;51.436;7.312;2023-12-20T21:05:21;7.30;;;5.77;;
948;SDS011;461;51.436;7.312;2023-12-20T21:07:47;6.30;;;4.50;;
948;SDS011;461;51.436;7.312;2023-12-20T21:10:13;5.37;;;4.87;;
948;SDS011;461;51.436;7.312;2023-12-20T21:12:39;6.13;;;4.33;;
948;SDS011;461;51.436;7.312;2023-12-20T21:15:05;8.50;;;4.73;;
948;SDS011;461;51.436;7.312;2023-12-20T21:17:31;16.70;;;6.60;;
948;SDS011;461;51.436;7.312;2023-12-20T21:19:58;5.93;;;4.60;;
948;SDS011;461;51.436;7.312;2023-12-20T21:22:24;5.67;;;4.50;;
948;SDS011;461;51.436;7.312;2023-12-20T21:24:50;4.83;;;4.30;;
948;SDS011;461;51.436;7.312;2023-12-20T21:27:16;5.43;;;4.00;;
948;SDS011;461;51.436;7.312;2023-12-20T21:29:42;7.33;;;3.70;;
948;SDS011;461;51.436;7.312;2023-12-20T21:32:08;4.50;;;3.57;;
948;SDS011;461;51.436;7.312;2023-12-20T21:34:34;6.47;;;3.40;;
948;SDS011;461;51.436;7.312;2023-12-20T21:37:01;3.30;;;3.00;;
948;SDS011;461;51.436;7.312;2023-12-20T21:39:28;4.63;;;2.77;;
948;SDS011;461;51.436;7.312;2023-12-20T21:41:54;7.97;;;2.90;;
948;SDS011;461;51.436;7.312;2023-12-20T21:44:20;4.80;;;2.53;;
948;SDS011;461;51.436;7.312;2023-12-20T21:46:46;3.10;;;2.40;;
948;SDS011;461;51.436;7.312;2023-12-20T21:49:12;2.97;;;2.77;;
948;SDS011;461;51.436;7.312;2023-12-20T21:51:38;2.83;;;2.20;;
948;SDS011;461;51.436;7.312;2023-12-20T21:54:06;3.67;;;2.60;;
948;SDS011;461;51.436;7.312;2023-12-20T21:56:32;2.83;;;2.60;;
948;SDS011;461;51.436;7.312;2023-12-20T21:59:00;3.10;;;2.40;;
948;SDS011;461;51.436;7.312;2023-12-20T22:01:26;3.87;;;2.23;;
948;SDS011;461;51.436;7.312;2023-12-20T22:03:52;4.27;;;2.37;;
948;SDS011;461;51.436;7.312;2023-12-20T22:06:18;2.23;;;2.00;;
948;SDS011;461;51.436;7.312;2023-12-20T22:08:45;2.70;;;2.50;;
948;SDS011;461;51.436;7.312;2023-12-20T22:11:11;4.10;;;2.20;;
948;SDS011;461;51.436;7.312;2023-12-20T22:13:37;3.07;;;2.40;;
948;SDS011;461;51.436;7.312;2023-12-20T22:16:03;2.30;;;2.10;;
948;SDS011;461;51.436;7.312;2023-12-20T22:18:30;4.27;;;3.33;;
948;SDS011;461;51.436;7.312;2023-12-20T22:20:56;5.17;;;3.57;;
948;SDS011;461;51.436;7.312;2023-12-20T22:23:22;3.90;;;2.10;;
948;SDS011;461;51.436;7.312;2023-12-20T22:25:48;2.63;;;2.43;;
948;SDS011;461;51.436;7.312;2023-12-20T22:28:14;6.30;;;3.17;;
948;SDS011;461;51.436;7.312;2023-12-20T22:30:40;3.57;;;3.10;;
948;SDS011;461;51.436;7.312;2023-12-20T22:33:06;4.40;;;3.23;;
948;SDS011;461;51.436;7.312;2023-12-20T22:35:32;3.20;;;2.90;;
948;SDS011;461;51.436;7.312;2023-12-20T22:37:58;8.60;;;3.63;;
948;SDS011;461;51.436;7.312;2023-12-20T22:40:25;6.30;;;3.80;;
948;SDS011;461;51.436;7.312;2023-12-20T22:42:51;6.53;;;3.60;;
948;SDS011;461;51.436;7.312;2023-12-20T22:45:18;8.47;;;4.47;;
948;SDS011;461;51.436;7.312;2023-12-20T22:47:44;6.53;;;4.07;;
948;SDS011;461;51.436;7.312;2023-12-20T22:50:11;6.43;;;3.80;;
948;SDS011;461;51.436;7.312;2023-12-20T22:52:37;7.00;;;4.87;;
948;SDS011;461;51.436;7.312;2023-12-20T22:55:03;4.03;;;3.53;;
948;SDS011;461;51.436;7.312;2023-12-20T22:57:29;5.50;;;3.93;;
948;SDS011;461;51.436;7.312;2023-12-20T22:59:55;3.60;;;3.30;;
948;SDS011;461;51.436;7.312;2023-12-20T23:02:22;3.93;;;3.43;;
948;SDS011;461;51.436;7.312;2023-12-20T23:04:47;5.57;;;4.00;;
948;SDS011;461;51.436;7.312;2023-12-20T23:07:13;7.37;;;3.60;;
948;SDS011;461;51.436;7.312;2023-12-20T23:09:39;5.27;;;3.70;;
948;SDS011;461;51.436;7.312;2023-12-20T23:12:05;3.93;;;3.63;;
948;SDS011;461;51.436;7.312;2023-12-20T23:14:31;5.00;;;3.00;;
948;SDS011;461;51.436;7.312;2023-12-20T23:16:57;3.87;;;3.47;;
948;SDS011;461;51.436;7.312;2023-12-20T23:19:23;3.20;;;2.87;;
948;SDS011;461;51.436;7.312;2023-12-20T23:21:49;3.83;;;2.80;;
948;SDS011;461;51.436;7.312;2023-12-20T23:24:15;3.37;;;3.07;;
948;SDS011;461;51.436;7.312;2023-12-20T23:26:41;4.57;;;3.43;;
948;SDS011;461;51.436;7.312;2023-12-20T23:29:07;4.27;;;3.00;;
948;SDS011;461;51.436;7.312;2023-12-20T23:31:33;2.73;;;2.50;;
948;SDS011;461;51.436;7.312;2023-12-20T23:33:59;3.30;;;3.00;;
948;SDS011;461;51.436;7.312;2023-12-20T23:36:25;3.27;;;2.97;;
948;SDS011;461;51.436;7.312;2023-12-20T23:38:50;3.60;;;2.40;;
948;SDS011;461;51.436;7.312;2023-12-20T23:41:16;2.80;;;2.60;;
948;SDS011;461;51.436;7.312;2023-12-20T23:43:42;4.60;;;3.03;;
948;SDS011;461;51.436;7.312;2023-12-20T23:46:08;5.53;;;2.60;;
948;SDS011;461;51.436;7.312;2023-12-20T23:48:33;6.20;;;2.53;;
948;SDS011;461;51.436;7.312;2023-12-20T23:51:00;7.60;;;3.10;;
948;SDS011;461;51.436;7.312;2023-12-20T23:53:26;6.00;;;3.63;;
948;SDS011;461;51.436;7.312;2023-12-20T23:55:52;3.60;;;3.00;;
948;SDS011;461;51.436;7.312;2023-12-20T23:58:18;7.83;;;3.70;;
